Time;durP1;ratioP1;P1;durP2;ratioP2;P2;SDS_P1;SDS_P2;PMS_P1;PMS_P2;Temp;Humidity;BMP_temperature;BMP_pressure;BME280_temperature;BME280_humidity;BME280_pressure;Samples;Min_cycle;Max_cycle;Signal;HPM_P1;HPM_P2
2023/05/07 00:00:21;;;;;;;5.40;4.60;;;;;;;;;;5094144;28;20060;-63
2023/05/07 00:02:47;;;;;;;8.02;4.90;;;;;;;;;;5094303;28;20028;-63
2023/05/07 00:05:14;;;;;;;6.30;4.75;;;;;;;;;;5094277;28;20036;-63
2023/05/07 00:07:40;;;;;;;6.95;4.82;;;;;;;;;;5094145;28;20070;-63
2023/05/07 00:10:06;;;;;;;6.95;4.78;;;;;;;;;;5094466;28;20032;-63
2023/05/07 00:12:35;;;;;;;7.18;5.00;;;;;;;;;;5094377;28;20069;-63
2023/05/07 00:15:05;;;;;;;6.23;4.80;;;;;;;;;;5094366;28;20028;-63
2023/05/07 00:17:32;;;;;;;6.00;4.72;;;;;;;;;;5093980;28;20016;-63
2023/05/07 00:19:57;;;;;;;7.00;4.85;;;;;;;;;;5094014;28;20083;-63
2023/05/07 00:22:23;;;;;;;6.63;4.70;;;;;;;;;;5094184;28;20025;-63
2023/05/07 00:24:48;;;;;;;7.63;4.75;;;;;;;;;;5094006;28;20391;-63
2023/05/07 00:27:14;;;;;;;7.55;4.68;;;;;;;;;;5093805;28;20051;-63
2023/05/07 00:29:39;;;;;;;7.20;4.60;;;;;;;;;;5094064;28;20114;-63
2023/05/07 00:32:05;;;;;;;5.70;4.55;;;;;;;;;;5093974;28;20115;-63
2023/05/07 00:34:30;;;;;;;5.05;4.57;;;;;;;;;;5093750;28;20106;-63
2023/05/07 00:36:56;;;;;;;6.35;4.65;;;;;;;;;;5093503;28;20027;-63
2023/05/07 00:39:21;;;;;;;9.02;5.18;;;;;;;;;;5093678;28;20024;-63
2023/05/07 00:41:47;;;;;;;6.15;4.70;;;;;;;;;;5093860;28;20128;-63
2023/05/07 00:44:14;;;;;;;9.15;4.75;;;;;;;;;;5093873;28;20559;-63
2023/05/07 00:46:40;;;;;;;5.88;4.60;;;;;;;;;;5093484;28;20134;-63
2023/05/07 00:49:06;;;;;;;7.13;4.35;;;;;;;;;;5093539;28;20049;-63
2023/05/07 00:51:33;;;;;;;6.53;4.28;;;;;;;;;;5093682;28;20388;-63
2023/05/07 00:54:02;;;;;;;6.75;4.80;;;;;;;;;;5093340;28;20074;-63
2023/05/07 00:56:27;;;;;;;4.47;4.07;;;;;;;;;;5093385;28;20024;-63
2023/05/07 00:58:53;;;;;;;4.47;4.07;;;;;;;;;;5093396;28;20035;-63
2023/05/07 01:01:19;;;;;;;6.45;4.45;;;;;;;;;;5093536;28;20016;-63
2023/05/07 01:03:44;;;;;;;5.57;4.90;;;;;;;;;;5093219;28;20020;-63
2023/05/07 01:06:12;;;;;;;5.15;4.45;;;;;;;;;;5091867;28;20016;-63
2023/05/07 01:08:39;;;;;;;6.85;4.55;;;;;;;;;;5093441;28;20042;-63
2023/05/07 01:11:06;;;;;;;5.97;4.55;;;;;;;;;;5092662;28;20097;-63
2023/05/07 01:13:34;;;;;;;4.53;4.07;;;;;;;;;;5092923;28;20107;-63
2023/05/07 01:15:59;;;;;;;7.72;4.40;;;;;;;;;;5093379;28;20043;-63
2023/05/07 01:18:26;;;;;;;5.53;4.35;;;;;;;;;;5093246;28;20475;-63
2023/05/07 01:20:52;;;;;;;7.60;4.68;;;;;;;;;;5093139;28;20028;-62
2023/05/07 01:23:18;;;;;;;5.72;4.30;;;;;;;;;;5093115;28;20028;-63
2023/05/07 01:25:54;;;;;;;4.57;4.18;;;;;;;;;;5093062;28;20024;-63
2023/05/07 01:28:20;;;;;;;5.05;4.20;;;;;;;;;;5092813;28;20479;-63
2023/05/07 01:30:51;;;;;;;6.68;4.20;;;;;;;;;;5093005;28;20020;-63
2023/05/07 01:33:21;;;;;;;6.22;4.43;;;;;;;;;;5092658;28;20102;-63
2023/05/07 01:35:50;;;;;;;7.10;4.57;;;;;;;;;;5092677;28;20024;-63
2023/05/07 01:38:16;;;;;;;5.07;4.57;;;;;;;;;;5092471;28;20036;-63
2023/05/07 01:40:43;;;;;;;5.32;4.25;;;;;;;;;;5092560;28;20077;-63
2023/05/07 01:43:09;;;;;;;4.72;4.32;;;;;;;;;;5092796;28;20073;-63
2023/05/07 01:45:35;;;;;;;6.13;4.97;;;;;;;;;;5092550;28;20023;-63
2023/05/07 01:48:02;;;;;;;4.88;4.43;;;;;;;;;;5092800;28;20017;-63
2023/05/07 01:50:28;;;;;;;5.13;4.30;;;;;;;;;;5092711;28;20024;-63
2023/05/07 01:52:54;;;;;;;6.15;4.13;;;;;;;;;;5092711;28;20081;-62
2023/05/07 01:55:19;;;;;;;5.60;4.63;;;;;;;;;;5092778;28;20028;-63
2023/05/07 01:57:45;;;;;;;4.63;4.10;;;;;;;;;;5092712;28;20034;-63
2023/05/07 02:00:11;;;;;;;4.45;4.05;;;;;;;;;;5092720;28;20490;-63
2023/05/07 02:02:37;;;;;;;4.55;4.15;;;;;;;;;;5092671;28;20028;-63
2023/05/07 02:05:03;;;;;;;5.65;4.40;;;;;;;;;;5092334;28;20115;-63
2023/05/07 02:07:29;;;;;;;5.18;4.50;;;;;;;;;;5092650;28;20111;-63
2023/05/07 02:09:57;;;;;;;5.75;4.53;;;;;;;;;;5092325;28;20012;-63
2023/05/07 02:12:23;;;;;;;5.15;4.60;;;;;;;;;;5092546;28;20028;-63
2023/05/07 02:14:49;;;;;;;7.35;4.50;;;;;;;;;;5092535;28;20439;-63
2023/05/07 02:17:15;;;;;;;6.47;4.38;;;;;;;;;;5092292;28;20057;-63
2023/05/07 02:19:40;;;;;;;5.85;4.30;;;;;;;;;;5092224;28;20111;-63
2023/05/07 02:22:07;;;;;;;4.85;4.10;;;;;;;;;;5094161;28;20111;-63
2023/05/07 02:24:32;;;;;;;4.68;4.15;;;;;;;;;;5095168;28;20031;-63
2023/05/07 02:26:58;;;;;;;4.72;4.22;;;;;;;;;;5096149;28;20028;-63
2023/05/07 02:29:23;;;;;;;4.72;4.32;;;;;;;;;;5096445;28;20016;-63
2023/05/07 02:31:50;;;;;;;5.55;4.40;;;;;;;;;;5096234;28;20024;-63
2023/05/07 02:34:16;;;;;;;6.47;4.43;;;;;;;;;;5096005;28;20032;-63
2023/05/07 02:36:43;;;;;;;5.20;4.50;;;;;;;;;;5095811;28;20472;-63
2023/05/07 02:39:08;;;;;;;4.50;4.10;;;;;;;;;;5096029;28;20035;-63
2023/05/07 02:41:34;;;;;;;5.07;4.20;;;;;;;;;;5096006;28;20070;-63
2023/05/07 02:43:59;;;;;;;4.38;4.07;;;;;;;;;;5095946;28;20099;-63
2023/05/07 02:46:25;;;;;;;5.15;4.55;;;;;;;;;;5095824;28;20411;-63
2023/05/07 02:48:50;;;;;;;4.38;3.97;;;;;;;;;;5096065;28;20031;-63
2023/05/07 02:51:20;;;;;;;5.20;4.07;;;;;;;;;;5095793;28;20024;-63
2023/05/07 02:53:46;;;;;;;6.45;4.25;;;;;;;;;;5095628;28;20532;-63
2023/05/07 02:56:11;;;;;;;4.40;4.00;;;;;;;;;;5095902;28;20036;-63
2023/05/07 02:58:39;;;;;;;4.60;4.13;;;;;;;;;;5095606;28;20060;-63
2023/05/07 03:01:08;;;;;;;5.10;4.05;;;;;;;;;;5095513;28;20028;-63
2023/05/07 03:03:33;;;;;;;6.88;4.35;;;;;;;;;;5095487;28;20020;-63
2023/05/07 03:05:59;;;;;;;5.90;4.32;;;;;;;;;;5095776;28;20039;-63
2023/05/07 03:08:25;;;;;;;6.20;4.18;;;;;;;;;;5095350;28;20027;-63
2023/05/07 03:10:51;;;;;;;5.07;4.03;;;;;;;;;;5095418;28;20055;-63
2023/05/07 03:13:16;;;;;;;5.72;3.75;;;;;;;;;;5095210;28;20594;-63
2023/05/07 03:15:42;;;;;;;5.38;4.40;;;;;;;;;;5095290;28;20062;-64
2023/05/07 03:18:07;;;;;;;5.95;4.32;;;;;;;;;;5095276;28;20044;-63
2023/05/07 03:20:33;;;;;;;4.43;4.03;;;;;;;;;;5095240;28;20422;-63
2023/05/07 03:22:58;;;;;;;4.55;4.10;;;;;;;;;;5095210;28;20034;-63
2023/05/07 03:25:24;;;;;;;5.22;4.30;;;;;;;;;;5095380;28;20056;-63
2023/05/07 03:27:49;;;;;;;4.88;4.10;;;;;;;;;;5095017;28;20123;-63
2023/05/07 03:30:15;;;;;;;5.13;4.55;;;;;;;;;;5095318;28;20112;-63
2023/05/07 03:32:40;;;;;;;4.47;4.03;;;;;;;;;;5094938;28;20032;-63
2023/05/07 03:35:06;;;;;;;7.85;4.15;;;;;;;;;;5094320;28;20473;-63
2023/05/07 03:37:32;;;;;;;6.65;4.30;;;;;;;;;;5094646;28;20101;-63
2023/05/07 03:39:57;;;;;;;5.85;4.35;;;;;;;;;;5095043;28;20451;-63
2023/05/07 03:42:23;;;;;;;4.90;3.97;;;;;;;;;;5094776;28;20460;-63
2023/05/07 03:44:49;;;;;;;5.05;4.20;;;;;;;;;;5094714;28;20030;-63
2023/05/07 03:47:14;;;;;;;4.60;4.15;;;;;;;;;;5094834;28;20044;-63
2023/05/07 03:49:40;;;;;;;4.30;3.90;;;;;;;;;;5094904;28;20499;-62
2023/05/07 03:52:06;;;;;;;4.82;4.43;;;;;;;;;;5094596;28;20031;-63
2023/05/07 03:54:31;;;;;;;4.88;4.47;;;;;;;;;;5094704;28;20067;-63
2023/05/07 03:56:57;;;;;;;4.28;3.88;;;;;;;;;;5094582;28;20510;-63
2023/05/07 03:59:22;;;;;;;4.45;4.00;;;;;;;;;;5094493;28;20028;-63
2023/05/07 04:01:48;;;;;;;4.60;4.20;;;;;;;;;;5094993;28;20024;-63
2023/05/07 04:04:14;;;;;;;8.00;4.13;;;;;;;;;;5094302;28;20353;-62
2023/05/07 04:06:40;;;;;;;4.32;3.92;;;;;;;;;;5093116;28;20032;-63
2023/05/07 04:09:06;;;;;;;4.85;4.45;;;;;;;;;;5094280;28;20036;-62
2023/05/07 04:11:32;;;;;;;5.65;4.05;;;;;;;;;;5094315;28;20024;-62
2023/05/07 04:13:57;;;;;;;4.03;3.58;;;;;;;;;;5094080;28;20559;-63
2023/05/07 04:16:23;;;;;;;5.43;3.97;;;;;;;;;;5094482;28;20016;-62
2023/05/07 04:18:48;;;;;;;4.78;4.18;;;;;;;;;;5094232;28;20468;-62
2023/05/07 04:21:18;;;;;;;7.53;4.05;;;;;;;;;;5094213;28;20361;-62
2023/05/07 04:23:44;;;;;;;4.30;3.90;;;;;;;;;;5094478;28;20020;-63
2023/05/07 04:26:10;;;;;;;5.10;4.03;;;;;;;;;;5094169;28;20101;-63
2023/05/07 04:28:36;;;;;;;4.20;3.80;;;;;;;;;;5094068;28;20027;-62
2023/05/07 04:31:01;;;;;;;4.05;3.75;;;;;;;;;;5093774;28;20024;-63
2023/05/07 04:33:27;;;;;;;4.32;3.88;;;;;;;;;;5093990;28;20035;-62
2023/05/07 04:35:52;;;;;;;5.28;4.10;;;;;;;;;;5094080;28;20032;-62
2023/05/07 04:38:18;;;;;;;4.35;3.95;;;;;;;;;;5093638;28;20401;-62
2023/05/07 04:40:44;;;;;;;5.13;3.95;;;;;;;;;;5093662;28;20028;-62
2023/05/07 04:43:10;;;;;;;4.18;3.88;;;;;;;;;;5093494;28;20106;-62
2023/05/07 04:45:36;;;;;;;4.43;3.83;;;;;;;;;;5093973;28;20119;-62
2023/05/07 04:48:02;;;;;;;4.68;4.10;;;;;;;;;;5093468;28;20020;-62
2023/05/07 04:50:27;;;;;;;4.20;3.80;;;;;;;;;;5093794;28;20065;-63
2023/05/07 04:52:53;;;;;;;4.88;4.05;;;;;;;;;;5093388;28;20063;-62
2023/05/07 04:55:18;;;;;;;4.32;3.92;;;;;;;;;;5093423;28;20115;-62
2023/05/07 04:57:45;;;;;;;4.10;3.80;;;;;;;;;;5093601;28;20039;-62
2023/05/07 05:00:13;;;;;;;4.97;4.13;;;;;;;;;;5093299;28;20053;-62
2023/05/07 05:02:39;;;;;;;4.85;4.00;;;;;;;;;;5093763;28;20356;-62
2023/05/07 05:05:05;;;;;;;4.28;3.80;;;;;;;;;;5093541;28;20107;-62
2023/05/07 05:07:31;;;;;;;4.25;3.88;;;;;;;;;;5093452;28;20031;-63
2023/05/07 05:09:57;;;;;;;4.72;3.80;;;;;;;;;;5093201;28;20379;-62
2023/05/07 05:12:23;;;;;;;4.15;3.70;;;;;;;;;;5091800;28;20047;-62
2023/05/07 05:14:48;;;;;;;5.50;3.70;;;;;;;;;;5093342;28;20032;-62
2023/05/07 05:17:14;;;;;;;4.18;3.78;;;;;;;;;;5093246;28;20088;-62
2023/05/07 05:19:40;;;;;;;4.80;4.05;;;;;;;;;;5092881;28;20468;-63
2023/05/07 05:22:05;;;;;;;4.10;3.70;;;;;;;;;;5093044;28;20023;-63
2023/05/07 05:24:31;;;;;;;4.20;3.78;;;;;;;;;;5092805;28;20047;-64
2023/05/07 05:26:57;;;;;;;8.90;3.92;;;;;;;;;;5092708;28;20024;-64
2023/05/07 05:29:22;;;;;;;4.25;3.85;;;;;;;;;;5092782;28;20026;-63
2023/05/07 05:31:48;;;;;;;4.20;3.80;;;;;;;;;;5092582;28;20055;-65
2023/05/07 05:34:13;;;;;;;4.32;3.92;;;;;;;;;;5092495;28;20032;-64
2023/05/07 05:36:39;;;;;;;5.63;4.10;;;;;;;;;;5092843;28;20077;-63
2023/05/07 05:39:05;;;;;;;6.05;3.90;;;;;;;;;;5092413;28;20503;-63
2023/05/07 05:41:31;;;;;;;5.35;4.03;;;;;;;;;;5092525;28;20491;-63
2023/05/07 05:43:56;;;;;;;4.32;3.92;;;;;;;;;;5092953;28;20028;-63
2023/05/07 05:46:22;;;;;;;4.30;3.88;;;;;;;;;;5092588;28;20081;-62
2023/05/07 05:48:48;;;;;;;4.35;3.95;;;;;;;;;;5092472;28;20039;-64
2023/05/07 05:51:13;;;;;;;4.60;3.83;;;;;;;;;;5092408;28;20019;-63
2023/05/07 05:53:39;;;;;;;4.75;4.03;;;;;;;;;;5091073;28;20170;-62
2023/05/07 05:56:05;;;;;;;4.18;3.78;;;;;;;;;;5092289;28;20082;-61
2023/05/07 05:58:31;;;;;;;5.60;3.35;;;;;;;;;;5091721;28;20086;-62
2023/05/07 06:00:57;;;;;;;4.25;3.85;;;;;;;;;;5091314;28;20048;-63
2023/05/07 06:03:23;;;;;;;3.75;3.42;;;;;;;;;;5091534;28;20042;-63
2023/05/07 06:05:49;;;;;;;4.22;3.83;;;;;;;;;;5090157;28;20456;-61
2023/05/07 06:08:14;;;;;;;4.47;3.92;;;;;;;;;;5089889;28;20498;-61
2023/05/07 06:10:40;;;;;;;5.30;4.18;;;;;;;;;;5089369;28;20028;-61
2023/05/07 06:13:05;;;;;;;4.03;3.60;;;;;;;;;;5090013;28;20484;-60
2023/05/07 06:15:31;;;;;;;3.85;3.55;;;;;;;;;;5091954;28;20062;-62
2023/05/07 06:17:57;;;;;;;4.13;3.72;;;;;;;;;;5091715;28;20498;-61
2023/05/07 06:20:23;;;;;;;4.05;3.65;;;;;;;;;;5090898;28;20448;-62
2023/05/07 06:22:48;;;;;;;4.53;3.55;;;;;;;;;;5090590;28;20134;-62
2023/05/07 06:25:14;;;;;;;4.32;3.92;;;;;;;;;;5091215;28;20020;-62
2023/05/07 06:27:40;;;;;;;6.53;3.83;;;;;;;;;;5091184;28;20410;-61
2023/05/07 06:30:06;;;;;;;4.07;3.63;;;;;;;;;;5090191;28;20024;-61
2023/05/07 06:32:32;;;;;;;3.88;3.58;;;;;;;;;;5089959;28;20491;-61
2023/05/07 06:34:58;;;;;;;3.90;3.60;;;;;;;;;;5090767;28;20035;-64
2023/05/07 06:37:23;;;;;;;5.57;3.78;;;;;;;;;;5090812;28;20016;-62
2023/05/07 06:39:49;;;;;;;4.35;3.70;;;;;;;;;;5091173;28;20016;-62
2023/05/07 06:42:15;;;;;;;4.25;3.80;;;;;;;;;;5089897;28;20024;-62
2023/05/07 06:44:40;;;;;;;4.65;4.05;;;;;;;;;;5091131;28;20035;-61
2023/05/07 06:47:06;;;;;;;4.03;3.63;;;;;;;;;;5090959;28;20468;-63
2023/05/07 06:49:32;;;;;;;5.88;3.60;;;;;;;;;;5090798;28;20028;-63
2023/05/07 06:51:57;;;;;;;4.93;4.03;;;;;;;;;;5089661;28;20486;-62
2023/05/07 06:54:23;;;;;;;5.05;3.70;;;;;;;;;;5089277;28;20031;-61
2023/05/07 06:56:49;;;;;;;4.95;3.90;;;;;;;;;;5087628;28;20549;-60
2023/05/07 06:59:14;;;;;;;4.63;4.15;;;;;;;;;;5092132;28;20061;-61
2023/05/07 07:01:40;;;;;;;6.80;5.13;;;;;;;;;;5092014;28;20017;-61
2023/05/07 07:04:06;;;;;;;11.15;5.50;;;;;;;;;;5091902;28;20450;-61
2023/05/07 07:06:31;;;;;;;14.75;5.82;;;;;;;;;;5091851;28;20031;-62
2023/05/07 07:08:58;;;;;;;9.13;5.40;;;;;;;;;;5093374;28;20103;-63
2023/05/07 07:11:23;;;;;;;15.85;4.50;;;;;;;;;;5094058;28;20107;-63
2023/05/07 07:13:50;;;;;;;5.75;4.80;;;;;;;;;;5086251;28;20103;-62
2023/05/07 07:16:16;;;;;;;8.85;4.50;;;;;;;;;;5095268;28;20028;-63
2023/05/07 07:18:41;;;;;;;8.52;4.70;;;;;;;;;;5095564;28;20034;-63
2023/05/07 07:21:07;;;;;;;5.93;4.75;;;;;;;;;;5095257;28;20470;-63
2023/05/07 07:23:32;;;;;;;8.68;4.95;;;;;;;;;;5095179;28;20051;-63
2023/05/07 07:25:58;;;;;;;12.98;4.70;;;;;;;;;;5095198;28;20024;-63
2023/05/07 07:28:24;;;;;;;10.73;4.80;;;;;;;;;;5094147;28;20020;-63
2023/05/07 07:30:49;;;;;;;8.30;4.32;;;;;;;;;;5095125;28;20051;-63
2023/05/07 07:33:15;;;;;;;4.97;4.45;;;;;;;;;;5095242;28;20091;-63
2023/05/07 07:35:40;;;;;;;5.25;4.18;;;;;;;;;;5094951;28;20024;-63
2023/05/07 07:38:06;;;;;;;9.15;4.55;;;;;;;;;;5094732;28;20127;-63
2023/05/07 07:40:34;;;;;;;4.35;3.95;;;;;;;;;;5094948;28;20076;-62
2023/05/07 07:43:01;;;;;;;6.15;4.40;;;;;;;;;;5094471;28;20524;-63
2023/05/07 07:45:27;;;;;;;8.07;4.30;;;;;;;;;;5093967;28;20146;-62
2023/05/07 07:47:52;;;;;;;5.57;3.70;;;;;;;;;;5092470;28;20099;-62
2023/05/07 07:50:18;;;;;;;6.70;3.80;;;;;;;;;;5094658;28;20020;-62
2023/05/07 07:52:44;;;;;;;10.02;4.50;;;;;;;;;;5094134;28;20027;-62
2023/05/07 07:55:09;;;;;;;5.28;4.30;;;;;;;;;;5092666;28;20028;-63
2023/05/07 07:57:35;;;;;;;4.63;4.22;;;;;;;;;;5094311;28;20022;-63
2023/05/07 08:00:01;;;;;;;4.97;4.20;;;;;;;;;;5094754;28;20047;-62
2023/05/07 08:02:26;;;;;;;4.43;3.90;;;;;;;;;;5094425;28;20411;-63
2023/05/07 08:04:52;;;;;;;5.10;4.53;;;;;;;;;;5094429;28;20035;-63
2023/05/07 08:07:20;;;;;;;4.63;3.83;;;;;;;;;;5094321;28;20028;-62
2023/05/07 08:09:46;;;;;;;6.20;4.20;;;;;;;;;;5094334;28;20024;-62
2023/05/07 08:12:12;;;;;;;5.75;4.10;;;;;;;;;;5094228;28;20032;-63
2023/05/07 08:14:38;;;;;;;4.00;3.67;;;;;;;;;;5094351;28;20081;-63
2023/05/07 08:17:03;;;;;;;4.30;3.90;;;;;;;;;;5094407;28;20421;-63
2023/05/07 08:19:29;;;;;;;4.63;3.83;;;;;;;;;;5093780;28;20472;-63
2023/05/07 08:21:55;;;;;;;4.40;3.83;;;;;;;;;;5094084;28;20024;-63
2023/05/07 08:24:21;;;;;;;4.07;3.72;;;;;;;;;;5094290;28;20028;-63
2023/05/07 08:26:46;;;;;;;5.45;3.90;;;;;;;;;;5094282;28;20459;-63
2023/05/07 08:29:12;;;;;;;7.50;4.03;;;;;;;;;;5094237;28;20035;-62
2023/05/07 08:31:40;;;;;;;4.25;3.80;;;;;;;;;;5093912;28;20095;-63
2023/05/07 08:34:06;;;;;;;4.30;3.90;;;;;;;;;;5093724;28;20032;-63
2023/05/07 08:36:32;;;;;;;4.93;3.80;;;;;;;;;;5093799;28;20034;-62
2023/05/07 08:38:59;;;;;;;7.00;4.00;;;;;;;;;;5093621;28;20483;-62
2023/05/07 08:41:24;;;;;;;5.40;3.72;;;;;;;;;;5093701;28;20470;-63
2023/05/07 08:43:51;;;;;;;4.07;3.72;;;;;;;;;;5093589;28;20030;-62
2023/05/07 08:46:19;;;;;;;4.45;4.05;;;;;;;;;;5093872;28;20024;-62
2023/05/07 08:48:47;;;;;;;4.00;3.53;;;;;;;;;;5093833;28;20357;-62
2023/05/07 08:51:13;;;;;;;5.45;3.70;;;;;;;;;;5093530;28;20027;-62
2023/05/07 08:53:41;;;;;;;4.65;3.53;;;;;;;;;;5093633;28;20416;-62
2023/05/07 08:56:08;;;;;;;3.88;3.50;;;;;;;;;;5092175;28;20032;-62
2023/05/07 08:58:34;;;;;;;5.47;3.50;;;;;;;;;;5093405;28;20032;-62
2023/05/07 09:01:06;;;;;;;6.32;3.95;;;;;;;;;;5093409;28;20488;-63
2023/05/07 09:03:32;;;;;;;4.15;3.60;;;;;;;;;;5093595;28;20478;-63
2023/05/07 09:05:58;;;;;;;5.25;3.55;;;;;;;;;;5093280;28;20028;-63
2023/05/07 09:08:27;;;;;;;4.30;3.90;;;;;;;;;;5093188;28;20028;-62
2023/05/07 09:10:53;;;;;;;4.15;3.75;;;;;;;;;;5093115;28;20482;-63
2023/05/07 09:13:19;;;;;;;4.18;3.78;;;;;;;;;;5091718;28;20127;-63
2023/05/07 09:15:45;;;;;;;4.05;3.65;;;;;;;;;;5093355;28;20154;-62
2023/05/07 09:18:11;;;;;;;4.82;3.70;;;;;;;;;;5091670;28;20023;-62
2023/05/07 09:20:37;;;;;;;5.53;3.78;;;;;;;;;;5093230;28;20028;-63
2023/05/07 09:23:03;;;;;;;4.05;3.65;;;;;;;;;;5092986;28;20503;-62
2023/05/07 09:25:31;;;;;;;4.47;3.60;;;;;;;;;;5092872;28;20077;-63
2023/05/07 09:27:57;;;;;;;4.03;3.72;;;;;;;;;;5093248;28;20036;-63
2023/05/07 09:30:22;;;;;;;4.55;3.67;;;;;;;;;;5092829;28;20352;-63
2023/05/07 09:32:48;;;;;;;3.78;3.47;;;;;;;;;;5092383;28;20024;-63
2023/05/07 09:35:17;;;;;;;3.88;3.58;;;;;;;;;;5092748;28;20023;-63
2023/05/07 09:37:43;;;;;;;5.20;3.60;;;;;;;;;;5092635;28;20464;-63
2023/05/07 09:40:20;;;;;;;3.90;3.60;;;;;;;;;;5092645;28;20068;-62
2023/05/07 09:42:47;;;;;;;4.07;3.67;;;;;;;;;;5092979;28;20027;-63
2023/05/07 09:45:12;;;;;;;8.05;3.55;;;;;;;;;;5092657;28;20405;-63
2023/05/07 09:47:42;;;;;;;4.25;3.80;;;;;;;;;;5092893;28;20081;-62
2023/05/07 09:50:10;;;;;;;3.90;3.58;;;;;;;;;;5092570;28;20471;-63
2023/05/07 09:52:36;;;;;;;3.97;3.53;;;;;;;;;;5092425;28;20060;-63
2023/05/07 09:55:03;;;;;;;5.75;3.35;;;;;;;;;;5092527;28;20082;-63
2023/05/07 09:57:29;;;;;;;3.45;3.15;;;;;;;;;;5092449;28;20043;-62
2023/05/07 09:59:57;;;;;;;3.80;3.40;;;;;;;;;;5092804;28;20361;-62
2023/05/07 10:02:27;;;;;;;3.70;3.40;;;;;;;;;;5092398;28;20031;-63
2023/05/07 10:04:54;;;;;;;5.63;3.70;;;;;;;;;;5092390;28;20491;-63
2023/05/07 10:07:20;;;;;;;4.43;3.65;;;;;;;;;;5092399;28;20541;-63
2023/05/07 10:09:46;;;;;;;4.72;3.55;;;;;;;;;;5092444;28;20076;-63
2023/05/07 10:12:12;;;;;;;3.92;3.40;;;;;;;;;;5092400;28;20107;-63
2023/05/07 10:14:38;;;;;;;3.97;3.50;;;;;;;;;;5092228;28;20132;-63
2023/05/07 10:17:04;;;;;;;3.72;3.42;;;;;;;;;;5092301;28;20048;-63
2023/05/07 10:19:29;;;;;;;3.95;3.55;;;;;;;;;;5092447;28;20086;-63
2023/05/07 10:21:59;;;;;;;4.13;3.30;;;;;;;;;;5093139;28;20028;-63
2023/05/07 10:24:28;;;;;;;4.00;3.60;;;;;;;;;;5092300;28;20028;-62
2023/05/07 10:26:56;;;;;;;3.78;3.42;;;;;;;;;;5092210;28;20069;-63
2023/05/07 10:29:27;;;;;;;3.90;3.50;;;;;;;;;;5092270;28;20238;-62
2023/05/07 10:32:23;;;;;;;3.50;3.20;;;;;;;;;;5092180;28;20052;-63
2023/05/07 10:34:53;;;;;;;3.92;3.63;;;;;;;;;;5020499;28;20107;-63
2023/05/07 10:37:19;;;;;;;3.90;3.50;;;;;;;;;;5092254;28;20043;-63
2023/05/07 10:39:45;;;;;;;4.88;3.40;;;;;;;;;;5092143;28;20024;-63
2023/05/07 10:42:11;;;;;;;3.80;3.47;;;;;;;;;;5092500;28;20069;-63
2023/05/07 10:44:37;;;;;;;3.78;3.50;;;;;;;;;;5096244;28;20081;-63
2023/05/07 10:47:11;;;;;;;5.80;3.60;;;;;;;;;;5096208;28;20059;-62
2023/05/07 10:49:44;;;;;;;4.57;3.45;;;;;;;;;;5095969;28;20024;-62
2023/05/07 10:52:18;;;;;;;3.60;3.30;;;;;;;;;;5095888;28;20107;-62
2023/05/07 10:54:44;;;;;;;4.45;3.70;;;;;;;;;;5095666;28;20032;-63
2023/05/07 10:57:31;;;;;;;3.55;3.10;;;;;;;;;;5096010;28;20031;-62
2023/05/07 10:59:57;;;;;;;4.32;3.55;;;;;;;;;;5095656;28;20472;-62
2023/05/07 11:02:23;;;;;;;4.50;3.42;;;;;;;;;;5095674;28;20103;-62
2023/05/07 11:05:22;;;;;;;3.78;3.47;;;;;;;;;;5095807;28;20056;-62
2023/05/07 11:07:56;;;;;;;3.87;3.53;;;;;;;;;;5095875;28;20100;-63
2023/05/07 11:10:22;;;;;;;3.78;3.38;;;;;;;;;;5095373;28;20268;-62
2023/05/07 11:12:52;;;;;;;3.70;3.40;;;;;;;;;;5095613;28;20105;-62
2023/05/07 11:15:44;;;;;;;3.85;3.55;;;;;;;;;;5094109;28;20035;-63
2023/05/07 11:18:12;;;;;;;4.72;3.33;;;;;;;;;;5095282;28;20028;-63
2023/05/07 11:20:52;;;;;;;3.70;3.40;;;;;;;;;;5095092;28;20534;-63
2023/05/07 11:23:37;;;;;;;4.03;3.60;;;;;;;;;;5095312;28;20081;-63
2023/05/07 11:26:10;;;;;;;3.63;3.33;;;;;;;;;;5095132;28;20043;-63
2023/05/07 11:28:43;;;;;;;3.35;3.08;;;;;;;;;;5095437;28;20028;-63
2023/05/07 11:31:10;;;;;;;3.70;3.40;;;;;;;;;;5095445;28;20046;-63
2023/05/07 11:33:36;;;;;;;3.90;3.60;;;;;;;;;;5095288;28;20031;-62
2023/05/07 11:36:07;;;;;;;4.05;3.60;;;;;;;;;;5095074;28;20028;-63
2023/05/07 11:38:37;;;;;;;3.55;3.25;;;;;;;;;;5094789;28;20472;-62
2023/05/07 11:41:05;;;;;;;5.55;3.05;;;;;;;;;;5095507;28;20020;-62
2023/05/07 11:43:39;;;;;;;3.92;3.53;;;;;;;;;;5095141;28;20055;-62
2023/05/07 11:46:14;;;;;;;4.60;3.33;;;;;;;;;;5093746;28;20494;-63
2023/05/07 11:48:41;;;;;;;3.88;3.40;;;;;;;;;;5094783;28;20044;-63
2023/05/07 11:51:08;;;;;;;3.67;3.30;;;;;;;;;;5094991;28;20126;-62
2023/05/07 11:53:38;;;;;;;3.78;3.47;;;;;;;;;;5094847;28;20383;-63
2023/05/07 11:56:15;;;;;;;3.70;3.38;;;;;;;;;;5094107;28;20027;-62
2023/05/07 11:58:42;;;;;;;4.40;3.60;;;;;;;;;;5094533;28;20020;-63
2023/05/07 12:01:09;;;;;;;3.55;3.25;;;;;;;;;;5094827;28;20373;-62
2023/05/07 12:03:37;;;;;;;3.78;3.45;;;;;;;;;;5094367;28;20034;-63
2023/05/07 12:06:06;;;;;;;3.60;3.30;;;;;;;;;;5094494;28;20028;-62
2023/05/07 12:08:32;;;;;;;4.00;3.60;;;;;;;;;;5094342;28;20020;-63
2023/05/07 12:10:57;;;;;;;4.03;3.72;;;;;;;;;;5094627;28;20024;-63
2023/05/07 12:13:25;;;;;;;3.55;3.25;;;;;;;;;;5094257;28;20024;-62
2023/05/07 12:15:55;;;;;;;3.35;3.15;;;;;;;;;;5094577;28;20047;-63
2023/05/07 12:18:22;;;;;;;5.50;3.40;;;;;;;;;;5094280;28;20024;-62
2023/05/07 12:20:49;;;;;;;3.80;3.50;;;;;;;;;;5094399;28;20032;-63
2023/05/07 12:23:15;;;;;;;3.80;3.38;;;;;;;;;;5094118;28;20513;-63
2023/05/07 12:25:48;;;;;;;4.20;3.70;;;;;;;;;;5094056;28;20031;-63
2023/05/07 12:28:17;;;;;;;3.78;3.30;;;;;;;;;;5094001;28;20020;-62
2023/05/07 12:30:44;;;;;;;3.58;3.28;;;;;;;;;;5094645;28;20371;-64
2023/05/07 12:33:10;;;;;;;3.72;3.42;;;;;;;;;;5093774;28;20032;-63
2023/05/07 12:35:39;;;;;;;3.40;3.10;;;;;;;;;;5093883;28;20028;-63
2023/05/07 12:38:08;;;;;;;3.10;2.90;;;;;;;;;;5093633;28;20048;-63
2023/05/07 12:40:37;;;;;;;3.50;3.20;;;;;;;;;;5093747;28;20036;-62
2023/05/07 12:43:03;;;;;;;5.80;3.40;;;;;;;;;;5094176;28;20036;-62
2023/05/07 12:45:28;;;;;;;3.58;3.28;;;;;;;;;;5093580;28;20054;-63
2023/05/07 12:47:54;;;;;;;3.75;3.38;;;;;;;;;;5094366;28;20123;-63
2023/05/07 12:50:20;;;;;;;4.28;3.50;;;;;;;;;;5093522;28;20028;-62
2023/05/07 12:52:49;;;;;;;3.45;3.15;;;;;;;;;;5093657;28;20073;-62
2023/05/07 12:55:16;;;;;;;3.60;3.30;;;;;;;;;;5093676;28;20039;-62
2023/05/07 12:57:45;;;;;;;3.38;3.17;;;;;;;;;;5093643;28;20056;-62
2023/05/07 13:00:11;;;;;;;3.60;3.30;;;;;;;;;;5093303;28;20464;-62
2023/05/07 13:02:44;;;;;;;3.50;3.20;;;;;;;;;;5093653;28;20024;-62
2023/05/07 13:05:10;;;;;;;3.47;3.25;;;;;;;;;;5093204;28;20059;-63
2023/05/07 13:07:36;;;;;;;4.30;3.10;;;;;;;;;;5092525;28;20031;-62
2023/05/07 13:10:03;;;;;;;3.60;3.30;;;;;;;;;;5093111;28;20024;-63
2023/05/07 13:12:28;;;;;;;3.65;3.05;;;;;;;;;;5093635;28;20483;-62
2023/05/07 13:14:54;;;;;;;3.50;3.20;;;;;;;;;;5092966;28;20031;-63
2023/05/07 13:17:19;;;;;;;3.42;3.17;;;;;;;;;;5093296;28;20028;-63
2023/05/07 13:19:45;;;;;;;3.40;3.10;;;;;;;;;;5093292;28;20544;-63
2023/05/07 13:22:11;;;;;;;3.58;3.28;;;;;;;;;;5093240;28;20024;-62
2023/05/07 13:24:36;;;;;;;3.47;3.17;;;;;;;;;;5093157;28;20376;-63
2023/05/07 13:27:02;;;;;;;4.35;3.30;;;;;;;;;;5092895;28;20020;-63
2023/05/07 13:29:29;;;;;;;3.75;3.38;;;;;;;;;;5093053;28;20028;-63
2023/05/07 13:31:59;;;;;;;3.63;2.88;;;;;;;;;;5093071;28;20022;-63
2023/05/07 13:34:24;;;;;;;4.07;3.20;;;;;;;;;;5092939;28;20020;-63
2023/05/07 13:36:50;;;;;;;3.15;2.95;;;;;;;;;;5092680;28;20517;-63
2023/05/07 13:39:15;;;;;;;3.50;3.20;;;;;;;;;;5092543;28;20514;-63
2023/05/07 13:41:41;;;;;;;3.38;3.08;;;;;;;;;;5092642;28;20411;-62
2023/05/07 13:44:06;;;;;;;3.22;2.95;;;;;;;;;;5092494;28;20023;-63
2023/05/07 13:46:32;;;;;;;3.80;3.50;;;;;;;;;;5092818;28;20031;-62
2023/05/07 13:48:58;;;;;;;3.03;2.75;;;;;;;;;;5092591;28;20036;-63
2023/05/07 13:51:23;;;;;;;3.10;2.90;;;;;;;;;;5092833;28;20023;-63
2023/05/07 13:53:49;;;;;;;3.40;3.15;;;;;;;;;;5092688;28;20081;-63
2023/05/07 13:56:15;;;;;;;3.47;3.17;;;;;;;;;;5092422;28;20017;-63
2023/05/07 13:58:40;;;;;;;3.28;3.05;;;;;;;;;;5092458;28;20028;-63
2023/05/07 14:01:06;;;;;;;3.13;2.83;;;;;;;;;;5092423;28;20039;-63
2023/05/07 14:03:33;;;;;;;3.15;2.95;;;;;;;;;;5092391;28;20035;-63
2023/05/07 14:06:01;;;;;;;3.60;3.22;;;;;;;;;;5092395;28;20066;-63
2023/05/07 14:08:27;;;;;;;3.67;3.38;;;;;;;;;;5092685;28;20024;-63
2023/05/07 14:10:53;;;;;;;3.22;3.03;;;;;;;;;;5092679;28;20406;-62
2023/05/07 14:13:19;;;;;;;3.20;3.00;;;;;;;;;;5092486;28;20040;-62
2023/05/07 14:15:46;;;;;;;3.60;3.30;;;;;;;;;;5092272;28;20028;-63
2023/05/07 14:18:12;;;;;;;3.47;3.17;;;;;;;;;;5094058;28;20031;-62
2023/05/07 14:20:38;;;;;;;3.33;3.10;;;;;;;;;;5096697;28;20384;-62
2023/05/07 14:23:04;;;;;;;3.17;2.95;;;;;;;;;;5096313;28;20031;-63
2023/05/07 14:25:29;;;;;;;3.35;3.05;;;;;;;;;;5096650;28;20029;-62
2023/05/07 14:27:55;;;;;;;3.55;3.00;;;;;;;;;;5096275;28;20183;-63
2023/05/07 14:30:24;;;;;;;3.50;3.20;;;;;;;;;;5096497;28;20020;-63
2023/05/07 14:32:50;;;;;;;3.92;3.53;;;;;;;;;;5094828;28;20031;-63
2023/05/07 14:35:15;;;;;;;3.58;3.17;;;;;;;;;;5096167;28;20020;-62
2023/05/07 14:37:41;;;;;;;3.40;3.10;;;;;;;;;;5095887;28;20028;-63
2023/05/07 14:40:07;;;;;;;3.50;3.20;;;;;;;;;;5096192;28;20425;-63